Abbott, Arkansas
Current Conditions -  °F | °C
As of 11:35 PM on Sunday 21 Dec 2014 (Local Time) from KRKR Reporting Station
Haze Haze  
Wind Chill: 45°   Ceiling: 600
Heat Index: 47°   Visibility: 5mi
Dew Point: 45°   Wind: 5mph
Humidity: 93%   Direction: 170°S
Pressure: 29.81"   Gusts: NA
Location:  35.0213°N, 94.2023°W
Report Text: KRKR 220535Z AUTO 17004KT 5SM BR BKN006 OVC012 08/07 A2981 RMK AO2 T00820072
Loading
Personal Weather Stations






























Interactive Weather Map New forecast layout! Learn more

10-Day Weather Forecast

Advertisements
Track Severe Weather on mobile